LFPG/CDG METAR and TAF weather

Enter ICAO airport designator
Station Type Date Time Source
LFPG METAR 2022/06/27 17:00 UTC NOAA

LFPG 271700Z 28010KT CAVOK 24/07 Q1019 NOSIG


Station Type Date Time Source
LFPG Decoded METAR 2022/06/27 17:00 UTC NOAA

Paris-Aeroport Charles De Gaulle, France (LFPG) 49-01N 002-32E 109M
Jun 27, 2022 - 01:00 PM EDT / 2022.06.27 1700 UTC
Wind: from the W (280 degrees) at 12 MPH (10 KT):0
Visibility: greater than 7 mile(s):0
Temperature: 75 F (24 C)
Dew Point: 44 F (7 C)
Relative Humidity: 33%
Pressure (altimeter): 30.09 in. Hg (1019 hPa)
ob: LFPG 271700Z 28010KT CAVOK 24/07 Q1019 NOSIG
cycle: 17

Station Type Date Time Source
LFPG TAF 2022/06/27 18:21 UTC NOAA

TAF LFPG 271700Z 2718/2824 30010KT CAVOK TX26/2815Z TN12/2804Z
BECMG 2723/2801 01005KT

Example: see airport list